Time;durP1;ratioP1;P1;durP2;ratioP2;P2;SDS_P1;SDS_P2;PMS_P1;PMS_P2;Temp;Humidity;BMP_temperature;BMP_pressure;BME280_temperature;BME280_humidity;BME280_pressure;Samples;Min_cycle;Max_cycle;Signal;HPM_P1;HPM_P2
2022/11/08 00:04:22;;;;;;;34.30;32.40;;;;;;;;;;10172113;28;20049;-72
2022/11/08 00:14:33;;;;;;;32.33;30.20;;;;;;;;;;10180528;28;20520;-70
2022/11/08 00:19:29;;;;;;;30.35;28.23;;;;;;;;;;10174766;28;20050;-70
2022/11/08 00:24:26;;;;;;;29.35;27.48;;;;;;;;;;10193371;28;20056;-70
2022/11/08 00:29:22;;;;;;;29.40;27.42;;;;;;;;;;10189540;28;20049;-70
2022/11/08 00:34:18;;;;;;;29.27;27.10;;;;;;;;;;10184358;28;20064;-70
2022/11/08 00:39:14;;;;;;;31.52;29.58;;;;;;;;;;10172472;28;20038;-73
2022/11/08 00:44:11;;;;;;;32.38;30.48;;;;;;;;;;10186487;28;20045;-71
2022/11/08 00:49:07;;;;;;;31.90;30.02;;;;;;;;;;10185622;28;20041;-72
2022/11/08 00:54:04;;;;;;;34.55;32.28;;;;;;;;;;10192106;28;20449;-72
2022/11/08 00:59:00;;;;;;;34.78;32.47;;;;;;;;;;10186498;28;20117;-72
2022/11/08 01:03:56;;;;;;;36.78;34.38;;;;;;;;;;10181104;28;20046;-72
2022/11/08 01:08:53;;;;;;;36.10;33.75;;;;;;;;;;10190927;28;20685;-72
2022/11/08 01:13:50;;;;;;;39.17;36.65;;;;;;;;;;10186458;28;20045;-71
2022/11/08 01:18:48;;;;;;;40.00;37.70;;;;;;;;;;10188598;28;20425;-72
2022/11/08 01:23:44;;;;;;;38.20;35.72;;;;;;;;;;10177885;28;20628;-71
2022/11/08 01:28:41;;;;;;;36.67;34.28;;;;;;;;;;10194022;28;20046;-71
2022/11/08 01:33:37;;;;;;;37.25;35.15;;;;;;;;;;10186546;28;20064;-72
2022/11/08 01:38:34;;;;;;;38.70;36.33;;;;;;;;;;10183286;28;20045;-72
2022/11/08 01:43:34;;;;;;;37.22;34.70;;;;;;;;;;10186333;28;20501;-73
2022/11/08 01:48:30;;;;;;;39.92;37.28;;;;;;;;;;10189009;28;20678;-73
2022/11/08 01:53:27;;;;;;;39.38;36.95;;;;;;;;;;10181955;28;20047;-73
2022/11/08 01:58:25;;;;;;;41.58;39.10;;;;;;;;;;10185021;28;20045;-71
2022/11/08 02:03:21;;;;;;;43.05;40.28;;;;;;;;;;10185657;28;20042;-71
2022/11/08 02:08:23;;;;;;;44.13;41.65;;;;;;;;;;10171928;28;20216;-71
2022/11/08 02:13:21;;;;;;;49.05;45.72;;;;;;;;;;10186606;28;20405;-71
2022/11/08 02:18:18;;;;;;;45.08;42.25;;;;;;;;;;10180404;28;20425;-72
2022/11/08 02:23:18;;;;;;;41.47;38.95;;;;;;;;;;10189309;28;20042;-73
2022/11/08 02:28:14;;;;;;;45.28;42.60;;;;;;;;;;10186777;28;20056;-73
2022/11/08 02:33:19;;;;;;;44.40;41.50;;;;;;;;;;10174517;28;20418;-73
2022/11/08 02:38:16;;;;;;;39.60;37.17;;;;;;;;;;10184079;28;20049;-73
2022/11/08 02:43:12;;;;;;;37.03;34.72;;;;;;;;;;10172800;28;20046;-73
2022/11/08 02:48:09;;;;;;;34.67;32.47;;;;;;;;;;10179893;28;20050;-73
2022/11/08 02:53:05;;;;;;;33.28;31.05;;;;;;;;;;10184963;28;20065;-73
2022/11/08 02:58:02;;;;;;;29.65;28.15;;;;;;;;;;10177942;28;20444;-72
2022/11/08 03:02:58;;;;;;;29.02;27.20;;;;;;;;;;10198603;28;20528;-71
2022/11/08 03:07:55;;;;;;;30.15;27.98;;;;;;;;;;10186121;28;20056;-72
2022/11/08 03:12:55;;;;;;;27.42;25.88;;;;;;;;;;10165446;28;20044;-72
2022/11/08 03:17:51;;;;;;;31.75;29.30;;;;;;;;;;10184154;28;20046;-73
2022/11/08 03:22:47;;;;;;;30.80;28.52;;;;;;;;;;10186601;28;20054;-73
2022/11/08 03:27:43;;;;;;;30.73;28.83;;;;;;;;;;10173407;28;20046;-73
2022/11/08 03:32:40;;;;;;;31.48;29.52;;;;;;;;;;10172032;28;20053;-72
2022/11/08 03:37:36;;;;;;;30.02;28.02;;;;;;;;;;10177191;28;20042;-72
2022/11/08 03:42:33;;;;;;;33.35;31.33;;;;;;;;;;10191977;28;20049;-70
2022/11/08 03:47:29;;;;;;;33.95;31.55;;;;;;;;;;10173120;28;20060;-70
2022/11/08 03:52:25;;;;;;;34.83;32.63;;;;;;;;;;10193266;28;20501;-70
2022/11/08 03:57:22;;;;;;;38.55;35.70;;;;;;;;;;10183768;28;20383;-70
2022/11/08 04:02:18;;;;;;;39.00;36.10;;;;;;;;;;10191942;28;20042;-72
2022/11/08 04:07:14;;;;;;;39.08;36.53;;;;;;;;;;10175409;28;20658;-73
2022/11/08 04:21:17;;;;;;;40.80;38.22;;;;;;;;;;10170041;28;20045;-73
2022/11/08 04:22:41;;;;;;;42.85;40.30;;;;;;;;;;10168385;28;20042;-73
2022/11/08 04:27:38;;;;;;;46.88;44.03;;;;;;;;;;10156634;28;20596;-71
2022/11/08 04:32:34;;;;;;;49.60;46.33;;;;;;;;;;10165263;28;20050;-74
2022/11/08 04:37:30;;;;;;;49.30;46.55;;;;;;;;;;10169704;28;20034;-74
2022/11/08 04:42:26;;;;;;;53.22;49.78;;;;;;;;;;10175478;28;20073;-74
2022/11/08 04:47:23;;;;;;;56.40;53.00;;;;;;;;;;10181090;28;20132;-72
2022/11/08 04:52:19;;;;;;;54.67;51.25;;;;;;;;;;10190541;28;20047;-72
2022/11/08 04:57:16;;;;;;;58.10;54.88;;;;;;;;;;10180372;28;20045;-70
2022/11/08 05:02:12;;;;;;;59.30;56.00;;;;;;;;;;10187958;28;20042;-70
2022/11/08 05:07:08;;;;;;;61.03;57.45;;;;;;;;;;10183604;28;20552;-71
2022/11/08 05:12:05;;;;;;;59.55;55.95;;;;;;;;;;10183727;28;20042;-72
2022/11/08 05:17:01;;;;;;;62.63;58.78;;;;;;;;;;10182220;28;20073;-70
2022/11/08 05:27:12;;;;;;;69.07;64.43;;;;;;;;;;10176930;28;20590;-71
2022/11/08 05:32:08;;;;;;;76.60;71.97;;;;;;;;;;10196658;28;20045;-71
2022/11/08 05:37:04;;;;;;;71.72;67.80;;;;;;;;;;10194717;28;20037;-71
2022/11/08 05:42:02;;;;;;;77.30;72.88;;;;;;;;;;10192338;28;20033;-72
2022/11/08 05:46:58;;;;;;;81.78;77.03;;;;;;;;;;10201828;28;20060;-71
2022/11/08 05:51:55;;;;;;;80.93;76.53;;;;;;;;;;10185139;28;20038;-71
2022/11/08 05:56:51;;;;;;;81.35;76.50;;;;;;;;;;10189250;28;20038;-71
2022/11/08 06:01:47;;;;;;;81.25;76.78;;;;;;;;;;10192482;28;20422;-71
2022/11/08 06:06:44;;;;;;;84.90;80.22;;;;;;;;;;10189223;28;20054;-71
2022/11/08 06:11:40;;;;;;;89.80;84.90;;;;;;;;;;10189257;28;20073;-71
2022/11/08 06:16:36;;;;;;;89.47;84.38;;;;;;;;;;10190165;28;20049;-71
2022/11/08 06:21:32;;;;;;;87.57;82.57;;;;;;;;;;10182551;28;20034;-71
2022/11/08 06:26:29;;;;;;;90.47;85.47;;;;;;;;;;10181744;28;20502;-71
2022/11/08 06:31:25;;;;;;;92.72;87.57;;;;;;;;;;10183388;28;20145;-71
2022/11/08 06:36:21;;;;;;;97.80;91.63;;;;;;;;;;10189366;28;20086;-71
2022/11/08 06:41:18;;;;;;;98.68;93.25;;;;;;;;;;10201737;28;20417;-71
2022/11/08 06:46:14;;;;;;;93.10;87.78;;;;;;;;;;10186710;28;20041;-71
2022/11/08 06:51:10;;;;;;;87.25;82.13;;;;;;;;;;10194301;28;20037;-71
2022/11/08 06:56:07;;;;;;;87.90;82.85;;;;;;;;;;10183343;28;20052;-72
2022/11/08 07:01:04;;;;;;;87.45;82.63;;;;;;;;;;10204633;28;20041;-71
2022/11/08 07:06:01;;;;;;;92.88;87.45;;;;;;;;;;10192011;28;20616;-71
2022/11/08 07:10:58;;;;;;;86.47;81.57;;;;;;;;;;10205721;28;20723;-71
2022/11/08 07:15:58;;;;;;;88.70;84.00;;;;;;;;;;10206687;28;20041;-71
2022/11/08 07:21:00;;;;;;;88.22;83.28;;;;;;;;;;10188010;28;20535;-71
2022/11/08 07:26:01;;;;;;;96.35;90.60;;;;;;;;;;10184370;28;20095;-71
2022/11/08 07:30:59;;;;;;;92.35;87.25;;;;;;;;;;10186017;28;20545;-71
2022/11/08 07:35:55;;;;;;;95.05;89.40;;;;;;;;;;10181574;28;20124;-68
2022/11/08 07:40:56;;;;;;;97.70;91.90;;;;;;;;;;10194444;28;20047;-68
2022/11/08 07:45:57;;;;;;;87.90;82.95;;;;;;;;;;10180539;28;20052;-68
2022/11/08 07:50:53;;;;;;;79.38;74.85;;;;;;;;;;10195340;28;20056;-68
2022/11/08 07:55:50;;;;;;;83.75;78.93;;;;;;;;;;10192296;28;20427;-69
2022/11/08 08:00:48;;;;;;;85.45;80.22;;;;;;;;;;10192751;28;20429;-69
2022/11/08 08:05:49;;;;;;;74.10;69.50;;;;;;;;;;10187287;28;20052;-68
2022/11/08 08:10:46;;;;;;;69.70;65.63;;;;;;;;;;10198433;28;20137;-68
2022/11/08 08:15:42;;;;;;;62.83;59.15;;;;;;;;;;10199087;28;20056;-69
2022/11/08 08:20:38;;;;;;;55.38;51.72;;;;;;;;;;10192409;28;20042;-68
2022/11/08 08:25:35;;;;;;;61.20;57.33;;;;;;;;;;10187116;28;20772;-68
2022/11/08 08:30:31;;;;;;;54.97;51.78;;;;;;;;;;10188674;28;20521;-69
2022/11/08 08:35:28;;;;;;;56.85;53.42;;;;;;;;;;10195520;28;20068;-69
2022/11/08 08:40:24;;;;;;;48.70;45.55;;;;;;;;;;10186972;28;20077;-68
2022/11/08 08:45:21;;;;;;;46.88;44.08;;;;;;;;;;10201718;28;21860;-69
2022/11/08 08:50:18;;;;;;;43.45;40.53;;;;;;;;;;10198324;28;20081;-69
2022/11/08 08:55:14;;;;;;;40.38;37.85;;;;;;;;;;10207770;28;20579;-69
2022/11/08 09:00:11;;;;;;;39.58;37.00;;;;;;;;;;10210327;28;20493;-68
2022/11/08 09:05:27;;;;;;;33.40;31.40;;;;;;;;;;10188443;28;20494;-68
2022/11/08 09:10:24;;;;;;;34.22;31.58;;;;;;;;;;10201737;28;20037;-68
2022/11/08 09:15:22;;;;;;;32.83;30.83;;;;;;;;;;10192043;28;20564;-69
2022/11/08 09:20:18;;;;;;;32.00;29.83;;;;;;;;;;10214528;28;20047;-69
2022/11/08 09:25:14;;;;;;;28.25;26.55;;;;;;;;;;10192892;28;20038;-68
2022/11/08 09:30:10;;;;;;;26.52;24.35;;;;;;;;;;10193882;28;20053;-68
2022/11/08 09:35:07;;;;;;;23.10;21.42;;;;;;;;;;10186554;28;20493;-69
2022/11/08 09:40:03;;;;;;;22.00;20.02;;;;;;;;;;10185403;28;20409;-69
2022/11/08 09:45:09;;;;;;;23.52;21.83;;;;;;;;;;10189555;28;20054;-68
2022/11/08 09:50:11;;;;;;;23.30;21.60;;;;;;;;;;10194387;28;20049;-68
2022/11/08 09:55:07;;;;;;;;;;;;;;;;;;10192326;28;20061;-68
2022/11/08 10:00:04;;;;;;;22.42;20.50;;;;;;;;;;10202410;28;19921;-69
2022/11/08 10:05:08;;;;;;;21.48;19.88;;;;;;;;;;10195699;28;20061;-68
2022/11/08 10:10:15;;;;;;;21.55;19.98;;;;;;;;;;10196966;28;20519;-68
2022/11/08 10:15:27;;;;;;;20.13;18.45;;;;;;;;;;10201966;28;20050;-68
2022/11/08 10:20:23;;;;;;;19.75;18.33;;;;;;;;;;10201262;28;20060;-69
2022/11/08 10:25:22;;;;;;;19.25;17.95;;;;;;;;;;10196460;28;20486;-68
2022/11/08 10:30:20;;;;;;;18.77;17.45;;;;;;;;;;10208166;28;20055;-68
2022/11/08 10:35:20;;;;;;;19.13;17.60;;;;;;;;;;10191933;28;20133;-68
2022/11/08 10:40:35;;;;;;;19.48;17.83;;;;;;;;;;10186968;28;20042;-68
2022/11/08 10:45:32;;;;;;;16.80;15.43;;;;;;;;;;10180912;28;20546;-68
2022/11/08 10:50:49;;;;;;;17.88;16.42;;;;;;;;;;10192791;28;20515;-68
2022/11/08 10:55:47;;;;;;;18.52;17.13;;;;;;;;;;10196621;28;20121;-68
2022/11/08 11:00:43;;;;;;;17.45;15.70;;;;;;;;;;10195087;28;20050;-68
2022/11/08 11:05:40;;;;;;;18.50;17.08;;;;;;;;;;10197934;28;20536;-68
2022/11/08 11:10:46;;;;;;;16.65;15.18;;;;;;;;;;10198112;28;20050;-68
2022/11/08 11:15:57;;;;;;;14.70;13.40;;;;;;;;;;10200328;28;20153;-68
2022/11/08 11:21:05;;;;;;;16.48;15.15;;;;;;;;;;10197321;28;20390;-68
2022/11/08 11:26:03;;;;;;;17.08;15.68;;;;;;;;;;10169543;28;20081;-68
2022/11/08 11:31:00;;;;;;;15.93;14.68;;;;;;;;;;10173794;28;20103;-68
2022/11/08 11:36:08;;;;;;;15.70;14.50;;;;;;;;;;10180018;28;20038;-68
2022/11/08 11:41:15;;;;;;;14.32;13.40;;;;;;;;;;10160112;28;20048;-69
2022/11/08 11:46:11;;;;;;;13.68;12.38;;;;;;;;;;10161932;28;20545;-68
2022/11/08 11:51:09;;;;;;;14.50;13.15;;;;;;;;;;10157355;28;20045;-68
2022/11/08 11:56:06;;;;;;;13.23;12.13;;;;;;;;;;10157799;28;20054;-68
2022/11/08 12:01:22;;;;;;;13.38;12.38;;;;;;;;;;10136582;28;20144;-69
2022/11/08 12:06:42;;;;;;;12.13;11.02;;;;;;;;;;10137498;28;20432;-69
2022/11/08 12:11:58;;;;;;;12.00;10.88;;;;;;;;;;10147664;28;20056;-69
2022/11/08 12:16:57;;;;;;;11.13;10.25;;;;;;;;;;10149407;28;20644;-68
2022/11/08 12:21:53;;;;;;;10.98;10.05;;;;;;;;;;10152085;28;20042;-69
2022/11/08 12:27:00;;;;;;;10.25;9.45;;;;;;;;;;10160954;28;20521;-69
2022/11/08 12:31:57;;;;;;;10.48;9.32;;;;;;;;;;10175670;28;20053;-68
2022/11/08 12:36:59;;;;;;;10.38;9.68;;;;;;;;;;10170274;28;20045;-69
2022/11/08 12:42:05;;;;;;;9.40;8.70;;;;;;;;;;10209824;28;20738;-68
2022/11/08 12:47:07;;;;;;;10.45;9.02;;;;;;;;;;10177260;28;20046;-69
2022/11/08 12:52:10;;;;;;;10.32;9.32;;;;;;;;;;10179243;28;20053;-69
2022/11/08 12:57:11;;;;;;;9.57;8.35;;;;;;;;;;10186505;28;20048;-69
2022/11/08 13:02:21;;;;;;;9.80;9.00;;;;;;;;;;10194770;28;20117;-69
2022/11/08 13:07:21;;;;;;;10.90;9.35;;;;;;;;;;10187239;28;20506;-69
2022/11/08 13:12:36;;;;;;;9.90;9.00;;;;;;;;;;10193444;28;20501;-68
2022/11/08 13:17:32;;;;;;;10.27;9.27;;;;;;;;;;10197787;28;20053;-69
2022/11/08 13:22:28;;;;;;;8.98;8.07;;;;;;;;;;10184674;28;20116;-69
2022/11/08 13:27:42;;;;;;;9.35;8.63;;;;;;;;;;10176253;28;20679;-69
2022/11/08 13:32:42;;;;;;;9.75;8.75;;;;;;;;;;10177908;28;20641;-69
2022/11/08 13:37:44;;;;;;;9.32;8.52;;;;;;;;;;10193779;28;20472;-68
2022/11/08 13:42:56;;;;;;;9.20;8.57;;;;;;;;;;10178894;28;20042;-68
2022/11/08 13:48:13;;;;;;;9.13;8.03;;;;;;;;;;10174686;28;20050;-68
2022/11/08 13:53:18;;;;;;;9.10;8.30;;;;;;;;;;10186256;28;20100;-69
2022/11/08 13:58:29;;;;;;;9.60;8.80;;;;;;;;;;10165387;28;20537;-69
2022/11/08 14:03:31;;;;;;;9.25;8.55;;;;;;;;;;10169981;28;20042;-69
2022/11/08 14:08:29;;;;;;;9.60;8.73;;;;;;;;;;10172859;28;20046;-69
2022/11/08 14:13:30;;;;;;;10.38;9.48;;;;;;;;;;10177836;28;20286;-69
2022/11/08 14:18:30;;;;;;;10.48;9.55;;;;;;;;;;10166625;28;20058;-69
2022/11/08 14:23:31;;;;;;;10.50;9.60;;;;;;;;;;10173878;28;20044;-69
2022/11/08 14:28:35;;;;;;;10.40;9.35;;;;;;;;;;10177700;28;20133;-69
2022/11/08 14:33:32;;;;;;;10.50;9.60;;;;;;;;;;10169758;28;20050;-69
2022/11/08 14:38:31;;;;;;;10.65;9.68;;;;;;;;;;10186824;28;20049;-69
2022/11/08 14:43:27;;;;;;;10.77;9.85;;;;;;;;;;10183487;28;20046;-69
2022/11/08 14:48:27;;;;;;;10.23;9.30;;;;;;;;;;10193981;28;20413;-69
2022/11/08 14:53:26;;;;;;;11.27;10.23;;;;;;;;;;10179357;28;20077;-69
2022/11/08 14:58:25;;;;;;;10.40;9.48;;;;;;;;;;10172089;28;20060;-69
2022/11/08 15:03:25;;;;;;;10.55;9.65;;;;;;;;;;10175079;28;20042;-68
2022/11/08 15:08:26;;;;;;;10.75;9.85;;;;;;;;;;10171215;28;20041;-69
2022/11/08 15:13:23;;;;;;;10.80;10.00;;;;;;;;;;10170301;28;20042;-68
2022/11/08 15:18:24;;;;;;;11.18;10.15;;;;;;;;;;10171229;28;20042;-68
2022/11/08 15:23:22;;;;;;;10.95;10.00;;;;;;;;;;10178183;28;20038;-68
2022/11/08 15:28:22;;;;;;;12.43;11.20;;;;;;;;;;10192765;28;20038;-68
2022/11/08 15:33:21;;;;;;;11.60;10.80;;;;;;;;;;10165261;28;20099;-68
2022/11/08 15:38:34;;;;;;;10.80;10.00;;;;;;;;;;10177386;28;20041;-68
2022/11/08 15:43:30;;;;;;;11.35;10.38;;;;;;;;;;10188051;28;20041;-68
2022/11/08 15:48:27;;;;;;;10.88;10.07;;;;;;;;;;10184051;28;20042;-69
2022/11/08 15:53:24;;;;;;;10.77;9.85;;;;;;;;;;10176983;28;20056;-69
2022/11/08 15:58:25;;;;;;;11.10;10.30;;;;;;;;;;10177374;28;20056;-69
2022/11/08 16:03:22;;;;;;;11.77;10.77;;;;;;;;;;10176171;28;20042;-69
2022/11/08 16:08:18;;;;;;;10.82;9.93;;;;;;;;;;10165698;28;20061;-69
2022/11/08 16:13:19;;;;;;;11.20;10.20;;;;;;;;;;10166691;28;20186;-70
2022/11/08 16:18:15;;;;;;;10.88;10.05;;;;;;;;;;10170458;28;20049;-69
2022/11/08 16:23:12;;;;;;;11.80;10.60;;;;;;;;;;10180837;28;20052;-69
2022/11/08 16:28:13;;;;;;;11.27;10.40;;;;;;;;;;10164739;28;20494;-69
2022/11/08 16:33:20;;;;;;;11.18;10.30;;;;;;;;;;10173131;28;21236;-69
2022/11/08 16:38:36;;;;;;;11.20;10.23;;;;;;;;;;10178908;28;20517;-69
2022/11/08 16:43:33;;;;;;;10.93;9.57;;;;;;;;;;10174938;28;20060;-69
2022/11/08 16:48:29;;;;;;;11.13;10.18;;;;;;;;;;10181048;28;20045;-69
2022/11/08 16:53:25;;;;;;;10.93;10.10;;;;;;;;;;10180436;28;20047;-69
2022/11/08 16:58:21;;;;;;;10.38;9.55;;;;;;;;;;10183437;28;20056;-69
2022/11/08 17:03:19;;;;;;;11.02;10.23;;;;;;;;;;10180274;28;20077;-69
2022/11/08 17:08:16;;;;;;;10.95;10.15;;;;;;;;;;10173007;28;20042;-69
2022/11/08 17:13:13;;;;;;;10.43;9.63;;;;;;;;;;10188950;28;20042;-69
2022/11/08 17:18:13;;;;;;;11.45;10.50;;;;;;;;;;10198361;28;20034;-69
2022/11/08 17:23:10;;;;;;;12.10;10.85;;;;;;;;;;10179476;28;20041;-69
2022/11/08 17:28:06;;;;;;;11.07;10.00;;;;;;;;;;10193367;28;20042;-69
2022/11/08 17:33:03;;;;;;;9.93;9.18;;;;;;;;;;10171415;28;20041;-69
2022/11/08 17:37:59;;;;;;;10.95;9.85;;;;;;;;;;10175011;28;20088;-69
2022/11/08 17:42:55;;;;;;;10.32;9.52;;;;;;;;;;10182173;28;20042;-69
2022/11/08 17:47:51;;;;;;;10.77;9.95;;;;;;;;;;10189314;28;20509;-68
2022/11/08 17:52:51;;;;;;;11.40;10.40;;;;;;;;;;10180893;28;20064;-69
2022/11/08 17:57:47;;;;;;;10.27;9.50;;;;;;;;;;10183784;28;20405;-68
2022/11/08 18:02:44;;;;;;;9.80;9.10;;;;;;;;;;10182238;28;20046;-68
2022/11/08 18:07:41;;;;;;;10.93;9.75;;;;;;;;;;10176596;28;20129;-69
2022/11/08 18:12:37;;;;;;;9.38;8.75;;;;;;;;;;10153306;28;20518;-69
2022/11/08 18:17:33;;;;;;;9.77;9.07;;;;;;;;;;10159925;28;20042;-69
2022/11/08 18:22:29;;;;;;;10.10;9.30;;;;;;;;;;10154799;28;20069;-69
2022/11/08 18:27:26;;;;;;;10.65;9.00;;;;;;;;;;10160157;28;20514;-69
2022/11/08 18:32:22;;;;;;;9.82;9.13;;;;;;;;;;10149396;28;20057;-69
2022/11/08 18:37:18;;;;;;;9.48;8.68;;;;;;;;;;10148160;28;20050;-69
2022/11/08 18:42:14;;;;;;;9.65;8.75;;;;;;;;;;10152077;28;20069;-69
2022/11/08 18:47:11;;;;;;;9.73;8.82;;;;;;;;;;10150740;28;20066;-69
2022/11/08 18:52:07;;;;;;;9.88;8.73;;;;;;;;;;10161160;28;20058;-69
2022/11/08 18:57:03;;;;;;;9.43;8.55;;;;;;;;;;10153302;28;21222;-69
2022/11/08 19:02:00;;;;;;;8.93;8.23;;;;;;;;;;10139038;28;20053;-68
2022/11/08 19:06:56;;;;;;;9.13;8.32;;;;;;;;;;10160328;28;20046;-69
2022/11/08 19:11:53;;;;;;;9.10;8.30;;;;;;;;;;10168549;28;20471;-69
2022/11/08 19:16:54;;;;;;;8.70;8.00;;;;;;;;;;10187333;28;20042;-69
2022/11/08 19:21:51;;;;;;;8.18;7.53;;;;;;;;;;10183744;28;20049;-68
2022/11/08 19:26:47;;;;;;;9.00;8.20;;;;;;;;;;10154764;28;20057;-69
2022/11/08 19:31:44;;;;;;;8.50;7.90;;;;;;;;;;10167488;28;20133;-69
2022/11/08 19:36:42;;;;;;;8.63;7.90;;;;;;;;;;10171738;28;20465;-69
2022/11/08 19:41:38;;;;;;;8.48;7.68;;;;;;;;;;10176262;28;20050;-69
2022/11/08 19:46:35;;;;;;;8.57;7.93;;;;;;;;;;10171766;28;20057;-69
2022/11/08 19:51:32;;;;;;;8.85;8.05;;;;;;;;;;10172619;28;20050;-69
2022/11/08 19:56:31;;;;;;;9.32;8.15;;;;;;;;;;10176169;28;20061;-69
2022/11/08 20:01:48;;;;;;;8.18;7.47;;;;;;;;;;10164184;28;20053;-69
2022/11/08 20:06:45;;;;;;;8.20;7.50;;;;;;;;;;10165798;28;20422;-69
2022/11/08 20:11:41;;;;;;;7.80;7.20;;;;;;;;;;10167533;28;20072;-69
2022/11/08 20:16:40;;;;;;;8.68;7.80;;;;;;;;;;10163431;28;20050;-69
2022/11/08 20:21:41;;;;;;;8.07;7.38;;;;;;;;;;10179416;28;20052;-69
2022/11/08 20:26:39;;;;;;;10.57;7.85;;;;;;;;;;10180601;28;20410;-69
2022/11/08 20:31:35;;;;;;;8.65;7.88;;;;;;;;;;10189636;28;20421;-69
2022/11/08 20:36:32;;;;;;;8.80;8.00;;;;;;;;;;10180713;28;20430;-69
2022/11/08 20:41:30;;;;;;;9.13;7.60;;;;;;;;;;10183777;28;20046;-69
2022/11/08 20:46:27;;;;;;;8.45;7.78;;;;;;;;;;10193140;28;20405;-69
2022/11/08 20:51:23;;;;;;;9.52;7.70;;;;;;;;;;10171542;28;20054;-69
2022/11/08 20:56:20;;;;;;;8.18;7.40;;;;;;;;;;10180322;28;20049;-69
2022/11/08 21:01:18;;;;;;;8.18;7.38;;;;;;;;;;10176537;28;20046;-68
2022/11/08 21:06:16;;;;;;;9.23;8.30;;;;;;;;;;10156548;28;20054;-68
2022/11/08 21:11:12;;;;;;;8.50;7.75;;;;;;;;;;10188968;28;20042;-68
2022/11/08 21:16:10;;;;;;;8.45;7.70;;;;;;;;;;10173450;28;20042;-68
2022/11/08 21:21:25;;;;;;;9.50;8.05;;;;;;;;;;10188794;28;20046;-68
2022/11/08 21:26:21;;;;;;;8.45;7.75;;;;;;;;;;10174540;28;20041;-68
2022/11/08 21:31:18;;;;;;;8.35;7.65;;;;;;;;;;10174159;28;20425;-68
2022/11/08 21:36:16;;;;;;;8.20;7.60;;;;;;;;;;10174943;28;20058;-69
2022/11/08 21:41:12;;;;;;;8.05;7.32;;;;;;;;;;10170548;28;20056;-68
2022/11/08 21:46:12;;;;;;;8.18;7.53;;;;;;;;;;10168959;28;20053;-68
2022/11/08 21:51:09;;;;;;;8.35;7.65;;;;;;;;;;10174126;28;20042;-68
2022/11/08 21:56:05;;;;;;;8.23;7.32;;;;;;;;;;10178495;28;20049;-69
2022/11/08 22:01:05;;;;;;;8.50;7.80;;;;;;;;;;10192781;28;20045;-68
2022/11/08 22:06:01;;;;;;;8.13;7.38;;;;;;;;;;10181493;28;20068;-68
2022/11/08 22:10:57;;;;;;;8.75;7.80;;;;;;;;;;10199952;28;20607;-68
2022/11/08 22:15:53;;;;;;;7.80;7.15;;;;;;;;;;10192607;28;20046;-69
2022/11/08 22:26:04;;;;;;;8.20;7.40;;;;;;;;;;10202315;28;20532;-67
2022/11/08 22:31:01;;;;;;;8.00;7.40;;;;;;;;;;10184222;28;20038;-68
2022/11/08 22:35:57;;;;;;;8.02;7.20;;;;;;;;;;10175075;28;20037;-69
2022/11/08 22:40:53;;;;;;;8.70;7.80;;;;;;;;;;10198549;28;20461;-69
2022/11/08 22:45:49;;;;;;;8.27;7.47;;;;;;;;;;10196178;28;20049;-69
2022/11/08 22:50:46;;;;;;;8.77;7.88;;;;;;;;;;10192964;28;20164;-69
2022/11/08 22:55:42;;;;;;;7.95;7.25;;;;;;;;;;10188569;28;20045;-68
2022/11/08 23:00:38;;;;;;;8.18;7.32;;;;;;;;;;10207718;28;20425;-67
2022/11/08 23:05:56;;;;;;;8.18;7.32;;;;;;;;;;10184557;28;20041;-68
2022/11/08 23:31:53;;;;;;;9.25;8.48;;;;;;;;;;10177061;28;20041;-68
2022/11/08 23:36:49;;;;;;;9.38;8.52;;;;;;;;;;10197522;28;20539;-67
2022/11/08 23:47:01;;;;;;;9.68;8.88;;;;;;;;;;10190706;28;20045;-68
2022/11/08 23:51:57;;;;;;;9.35;8.52;;;;;;;;;;10192240;28;20052;-68
2022/11/08 23:56:53;;;;;;;9.07;8.45;;;;;;;;;;10193218;28;20673;-68
